Time;durP1;ratioP1;P1;durP2;ratioP2;P2;SDS_P1;SDS_P2;PMS_P1;PMS_P2;Temp;Humidity;BMP_temperature;BMP_pressure;BME280_temperature;BME280_humidity;BME280_pressure;Samples;Min_cycle;Max_cycle;Signal;HPM_P1;HPM_P2
2022/10/22 00:00:55;;;;;;;103.05;94.90;;;;;;;;;;10139444;28;20043;-71
2022/10/22 00:05:51;;;;;;;100.95;93.00;;;;;;;;;;10124103;28;20046;-71
2022/10/22 00:10:48;;;;;;;100.82;92.93;;;;;;;;;;10144072;28;20077;-71
2022/10/22 00:15:44;;;;;;;103.32;95.28;;;;;;;;;;10097500;28;20042;-71
2022/10/22 00:20:40;;;;;;;99.97;92.28;;;;;;;;;;10110640;28;20385;-71
2022/10/22 00:25:36;;;;;;;105.70;97.40;;;;;;;;;;10161470;28;20042;-71
2022/10/22 00:30:33;;;;;;;102.47;94.32;;;;;;;;;;10152263;28;20061;-71
2022/10/22 00:35:29;;;;;;;104.85;96.35;;;;;;;;;;10146969;28;20053;-71
2022/10/22 00:40:25;;;;;;;102.32;93.90;;;;;;;;;;10105102;28;20412;-71
2022/10/22 00:45:26;;;;;;;103.75;95.03;;;;;;;;;;10146949;28;20436;-71
2022/10/22 00:50:22;;;;;;;102.55;93.75;;;;;;;;;;10116117;28;20047;-71
2022/10/22 00:55:19;;;;;;;106.57;96.60;;;;;;;;;;10101890;28;20046;-71
2022/10/22 01:00:15;;;;;;;102.28;93.97;;;;;;;;;;10152965;28;20484;-71
2022/10/22 01:05:12;;;;;;;101.85;93.15;;;;;;;;;;10104015;28;20051;-71
2022/10/22 01:10:14;;;;;;;99.63;91.00;;;;;;;;;;10142950;28;20495;-71
2022/10/22 01:15:29;;;;;;;104.45;95.38;;;;;;;;;;10152139;28;20042;-71
2022/10/22 01:20:34;;;;;;;106.18;97.00;;;;;;;;;;10148830;28;20097;-71
2022/10/22 01:25:34;;;;;;;101.28;92.53;;;;;;;;;;10151865;28;20046;-71
2022/10/22 01:30:31;;;;;;;105.60;96.60;;;;;;;;;;10148294;28;20056;-71
2022/10/22 01:35:32;;;;;;;104.22;95.22;;;;;;;;;;10141618;28;20482;-72
2022/10/22 01:40:35;;;;;;;105.43;96.20;;;;;;;;;;10094201;28;20043;-71
2022/10/22 01:45:35;;;;;;;106.07;97.40;;;;;;;;;;10106690;28;20049;-71
2022/10/22 01:50:38;;;;;;;103.00;94.55;;;;;;;;;;10142351;28;20098;-71
2022/10/22 01:55:37;;;;;;;100.38;92.15;;;;;;;;;;10122151;28;20042;-71
2022/10/22 02:00:36;;;;;;;102.20;93.82;;;;;;;;;;10147258;28;20038;-71
2022/10/22 02:05:42;;;;;;;104.57;95.82;;;;;;;;;;10120573;28;20058;-71
2022/10/22 02:10:39;;;;;;;105.75;96.68;;;;;;;;;;10151792;28;20043;-71
2022/10/22 02:15:36;;;;;;;97.70;89.35;;;;;;;;;;10164097;28;20046;-71
2022/10/22 02:20:33;;;;;;;99.97;91.68;;;;;;;;;;10151177;28;20045;-71
2022/10/22 02:25:32;;;;;;;101.13;92.90;;;;;;;;;;10150062;28;20047;-71
2022/10/22 02:30:29;;;;;;;103.00;94.60;;;;;;;;;;10159706;28;20046;-71
2022/10/22 02:35:26;;;;;;;101.70;93.35;;;;;;;;;;10158813;28;20054;-71
2022/10/22 02:40:23;;;;;;;108.28;99.30;;;;;;;;;;10156095;28;20046;-71
2022/10/22 02:45:19;;;;;;;108.80;99.97;;;;;;;;;;10161145;28;20061;-71
2022/10/22 02:50:16;;;;;;;107.10;98.70;;;;;;;;;;10162656;28;20055;-71
2022/10/22 02:55:12;;;;;;;107.05;98.63;;;;;;;;;;10152448;28;20047;-71
2022/10/22 03:00:09;;;;;;;110.30;101.43;;;;;;;;;;10112125;28;20049;-71
2022/10/22 03:05:06;;;;;;;110.65;102.25;;;;;;;;;;10107496;28;20050;-71
2022/10/22 03:10:02;;;;;;;113.28;104.20;;;;;;;;;;10145103;28;20056;-71
2022/10/22 03:14:58;;;;;;;119.68;110.05;;;;;;;;;;10150227;28;20057;-70
2022/10/22 03:19:55;;;;;;;114.70;105.35;;;;;;;;;;10098331;28;20513;-71
2022/10/22 03:24:53;;;;;;;114.20;105.07;;;;;;;;;;10152740;28;20044;-71
2022/10/22 03:29:50;;;;;;;116.20;107.07;;;;;;;;;;10151438;28;21329;-71
2022/10/22 03:34:47;;;;;;;117.82;108.32;;;;;;;;;;10115106;28;20051;-71
2022/10/22 03:39:43;;;;;;;116.38;107.20;;;;;;;;;;10151124;28;20677;-71
2022/10/22 03:44:39;;;;;;;116.78;107.75;;;;;;;;;;10152409;28;20046;-71
2022/10/22 03:49:36;;;;;;;119.38;110.13;;;;;;;;;;10152379;28;20042;-71
2022/10/22 03:54:32;;;;;;;117.28;108.18;;;;;;;;;;10168002;28;20050;-71
2022/10/22 03:59:32;;;;;;;119.10;109.22;;;;;;;;;;10155345;28;20416;-71
2022/10/22 04:04:29;;;;;;;118.53;108.82;;;;;;;;;;10138117;28;20659;-71
2022/10/22 04:09:25;;;;;;;113.85;105.10;;;;;;;;;;10150824;28;20050;-71
2022/10/22 04:14:21;;;;;;;117.25;108.10;;;;;;;;;;10158216;28;20046;-71
2022/10/22 04:19:17;;;;;;;119.70;110.35;;;;;;;;;;10158283;28;20066;-70
2022/10/22 04:24:14;;;;;;;121.57;112.18;;;;;;;;;;10149850;28;20058;-71
2022/10/22 04:29:10;;;;;;;118.70;109.80;;;;;;;;;;10112529;28;20043;-70
2022/10/22 04:34:11;;;;;;;124.40;114.95;;;;;;;;;;10109016;28;20053;-71
2022/10/22 04:39:07;;;;;;;116.88;107.97;;;;;;;;;;10100727;28;20053;-71
2022/10/22 04:44:04;;;;;;;124.65;115.13;;;;;;;;;;10108534;28;20051;-71
2022/10/22 04:49:02;;;;;;;121.65;112.05;;;;;;;;;;10107802;28;20054;-71
2022/10/22 04:53:59;;;;;;;123.53;113.90;;;;;;;;;;10138680;28;20042;-71
2022/10/22 04:59:02;;;;;;;127.55;117.63;;;;;;;;;;10156533;28;20407;-70
2022/10/22 05:04:00;;;;;;;122.00;112.55;;;;;;;;;;10109206;28;20421;-70
2022/10/22 05:08:57;;;;;;;118.75;109.38;;;;;;;;;;10097009;28;20049;-71
2022/10/22 05:13:55;;;;;;;122.00;112.38;;;;;;;;;;10101255;28;20604;-70
2022/10/22 05:18:52;;;;;;;116.95;107.88;;;;;;;;;;10143150;28;20381;-70
2022/10/22 05:23:49;;;;;;;119.75;110.35;;;;;;;;;;10133399;28;20678;-71
2022/10/22 05:28:46;;;;;;;122.00;112.47;;;;;;;;;;10107007;28;20081;-71
2022/10/22 05:33:42;;;;;;;117.50;108.60;;;;;;;;;;10153482;28;20038;-71
2022/10/22 05:38:38;;;;;;;117.28;108.03;;;;;;;;;;10122703;28;20417;-71
2022/10/22 05:43:35;;;;;;;111.53;101.93;;;;;;;;;;10091984;28;20057;-71
2022/10/22 05:48:32;;;;;;;106.15;97.53;;;;;;;;;;10094445;28;20044;-71
2022/10/22 05:53:34;;;;;;;109.05;100.03;;;;;;;;;;10135819;28;20034;-71
2022/10/22 05:58:32;;;;;;;110.88;101.75;;;;;;;;;;10121971;28;20042;-70
2022/10/22 06:03:28;;;;;;;111.50;101.38;;;;;;;;;;10110360;28;20050;-70
2022/10/22 06:08:24;;;;;;;104.90;95.28;;;;;;;;;;10108123;28;20256;-71
2022/10/22 06:13:21;;;;;;;112.53;92.53;;;;;;;;;;10103979;28;20062;-71
2022/10/22 06:18:18;;;;;;;99.25;90.82;;;;;;;;;;10127714;28;20579;-69
2022/10/22 06:23:15;;;;;;;101.82;91.78;;;;;;;;;;10140470;28;20054;-70
2022/10/22 06:28:11;;;;;;;104.15;95.22;;;;;;;;;;10146747;28;20052;-68
2022/10/22 06:33:07;;;;;;;105.28;96.25;;;;;;;;;;10130055;28;20133;-71
2022/10/22 06:38:05;;;;;;;100.30;91.60;;;;;;;;;;10136646;28;20046;-74
2022/10/22 06:43:01;;;;;;;105.03;95.65;;;;;;;;;;10147122;28;20428;-69
2022/10/22 06:47:58;;;;;;;98.35;89.90;;;;;;;;;;10125188;28;20043;-70
2022/10/22 06:52:54;;;;;;;102.25;92.95;;;;;;;;;;10134961;28;20057;-70
2022/10/22 06:57:50;;;;;;;101.13;92.43;;;;;;;;;;10149261;28;20046;-71
2022/10/22 07:02:51;;;;;;;99.50;89.65;;;;;;;;;;10143036;28;20057;-71
2022/10/22 07:07:54;;;;;;;94.78;86.38;;;;;;;;;;10101237;28;20515;-71
2022/10/22 07:12:50;;;;;;;100.22;91.45;;;;;;;;;;10123901;28;20088;-71
2022/10/22 07:17:46;;;;;;;100.72;91.40;;;;;;;;;;10141590;28;20051;-71
2022/10/22 07:22:43;;;;;;;99.07;90.50;;;;;;;;;;10152792;28;20050;-71
2022/10/22 07:27:39;;;;;;;97.07;88.47;;;;;;;;;;10144144;28;20057;-71
2022/10/22 07:32:36;;;;;;;98.80;90.13;;;;;;;;;;10144088;28;20149;-71
2022/10/22 07:37:32;;;;;;;100.65;91.30;;;;;;;;;;10130409;28;20105;-71
2022/10/22 07:42:29;;;;;;;101.65;92.47;;;;;;;;;;10119761;28;20123;-70
2022/10/22 07:47:30;;;;;;;104.13;94.82;;;;;;;;;;10104447;28;20476;-71
2022/10/22 07:52:26;;;;;;;106.45;96.75;;;;;;;;;;10121690;28;20050;-70
2022/10/22 07:57:23;;;;;;;107.90;98.32;;;;;;;;;;10124134;28;20049;-71
2022/10/22 08:02:19;;;;;;;109.30;99.20;;;;;;;;;;10129683;28;20055;-71
2022/10/22 08:07:15;;;;;;;106.07;96.80;;;;;;;;;;10144103;28;20046;-71
2022/10/22 08:12:12;;;;;;;106.57;97.57;;;;;;;;;;10137886;28;20046;-70
2022/10/22 08:17:08;;;;;;;103.70;94.43;;;;;;;;;;10123843;28;20050;-70
2022/10/22 08:22:04;;;;;;;103.25;94.47;;;;;;;;;;10141959;28;20046;-71
2022/10/22 08:27:00;;;;;;;106.22;96.85;;;;;;;;;;10146109;28;20055;-71
2022/10/22 08:31:57;;;;;;;101.20;92.72;;;;;;;;;;10144655;28;20046;-71
2022/10/22 08:36:53;;;;;;;104.47;95.40;;;;;;;;;;10141453;28;20046;-71
2022/10/22 08:41:58;;;;;;;103.50;94.65;;;;;;;;;;10125363;28;20054;-70
2022/10/22 08:46:57;;;;;;;106.88;97.82;;;;;;;;;;10142534;28;20042;-71
2022/10/22 08:51:56;;;;;;;105.53;96.72;;;;;;;;;;10138777;28;20061;-70
2022/10/22 08:57:15;;;;;;;105.03;96.47;;;;;;;;;;10147284;28;20046;-71
2022/10/22 09:02:34;;;;;;;106.53;97.78;;;;;;;;;;10138407;28;20715;-71
2022/10/22 09:07:30;;;;;;;111.68;102.68;;;;;;;;;;10112509;28;20399;-71
2022/10/22 09:12:27;;;;;;;122.35;112.45;;;;;;;;;;10132935;28;20057;-71
2022/10/22 09:17:27;;;;;;;118.93;109.57;;;;;;;;;;10130101;28;20039;-70
2022/10/22 09:22:24;;;;;;;129.57;119.72;;;;;;;;;;10134752;28;20139;-70
2022/10/22 09:27:24;;;;;;;126.95;117.15;;;;;;;;;;10133436;28;20042;-70
2022/10/22 09:32:21;;;;;;;134.23;124.30;;;;;;;;;;10088688;28;20055;-70
2022/10/22 09:37:18;;;;;;;147.63;137.30;;;;;;;;;;10094644;28;20417;-70
2022/10/22 09:42:16;;;;;;;146.68;136.43;;;;;;;;;;10121632;28;20042;-71
2022/10/22 09:47:28;;;;;;;152.35;142.38;;;;;;;;;;10114010;28;20061;-71
2022/10/22 09:52:39;;;;;;;156.38;146.10;;;;;;;;;;10108741;28;20097;-71
2022/10/22 09:57:36;;;;;;;157.40;147.35;;;;;;;;;;10109873;28;20043;-71
2022/10/22 10:02:38;;;;;;;155.45;146.13;;;;;;;;;;10115469;28;20130;-71
2022/10/22 10:07:35;;;;;;;146.05;137.50;;;;;;;;;;10144932;28;20122;-71
2022/10/22 10:12:48;;;;;;;143.73;135.35;;;;;;;;;;10138959;28;20042;-71
2022/10/22 10:18:07;;;;;;;119.43;112.72;;;;;;;;;;10129545;28;20038;-71
2022/10/22 10:23:17;;;;;;;103.95;98.15;;;;;;;;;;10149403;28;20097;-71
2022/10/22 10:28:22;;;;;;;98.43;93.13;;;;;;;;;;10140090;28;20065;-71
2022/10/22 10:33:24;;;;;;;91.47;86.15;;;;;;;;;;10127184;28;20505;-70
2022/10/22 10:38:26;;;;;;;72.80;68.60;;;;;;;;;;10115275;28;20053;-70
2022/10/22 10:43:31;;;;;;;65.15;61.33;;;;;;;;;;10152357;28;20108;-70
2022/10/22 10:48:32;;;;;;;43.80;41.00;;;;;;;;;;10148580;28;20061;-70
2022/10/22 10:53:31;;;;;;;31.20;29.13;;;;;;;;;;10141997;28;20054;-70
2022/10/22 10:58:30;;;;;;;24.73;22.50;;;;;;;;;;10153628;28;20056;-70
2022/10/22 11:03:44;;;;;;;18.25;16.85;;;;;;;;;;10136680;28;20057;-70
2022/10/22 11:08:53;;;;;;;19.63;17.98;;;;;;;;;;10138937;28;20042;-70
2022/10/22 11:13:57;;;;;;;18.73;17.42;;;;;;;;;;10152626;28;20400;-70
2022/10/22 11:19:02;;;;;;;14.82;13.07;;;;;;;;;;10153913;28;20653;-70
2022/10/22 11:24:13;;;;;;;13.55;12.27;;;;;;;;;;10148020;28;20415;-70
2022/10/22 11:29:11;;;;;;;16.58;15.18;;;;;;;;;;10154056;28;20512;-70
2022/10/22 11:34:29;;;;;;;16.95;15.43;;;;;;;;;;10148045;28;20417;-70
2022/10/22 11:39:32;;;;;;;17.02;15.82;;;;;;;;;;10158000;28;20408;-70
2022/10/22 11:44:31;;;;;;;18.90;17.50;;;;;;;;;;10159079;28;20491;-70
2022/10/22 11:49:41;;;;;;;16.58;15.30;;;;;;;;;;10155259;28;20129;-70
2022/10/22 11:54:41;;;;;;;12.40;11.40;;;;;;;;;;10149852;28;20049;-70
2022/10/22 11:59:39;;;;;;;12.50;11.48;;;;;;;;;;10146973;28;20065;-70
2022/10/22 12:04:39;;;;;;;12.52;11.32;;;;;;;;;;10153954;28;20050;-71
2022/10/22 12:09:39;;;;;;;11.50;10.40;;;;;;;;;;10151584;28;20528;-70
2022/10/22 12:14:52;;;;;;;11.73;10.68;;;;;;;;;;10138151;28;20034;-70
2022/10/22 12:19:50;;;;;;;10.75;9.95;;;;;;;;;;10151941;28;20050;-70
2022/10/22 12:24:48;;;;;;;13.98;10.25;;;;;;;;;;10109464;28;20054;-70
2022/10/22 12:29:44;;;;;;;11.98;10.82;;;;;;;;;;10142998;28;20064;-70
2022/10/22 12:34:44;;;;;;;11.73;10.63;;;;;;;;;;10122363;28;20054;-70
2022/10/22 12:39:41;;;;;;;14.38;12.60;;;;;;;;;;10103749;28;20046;-70
2022/10/22 12:44:37;;;;;;;15.40;14.00;;;;;;;;;;10148452;28;20042;-71
2022/10/22 12:49:37;;;;;;;16.42;14.98;;;;;;;;;;10127344;28;20058;-70
2022/10/22 12:54:34;;;;;;;17.65;16.25;;;;;;;;;;10110333;28;20046;-71
2022/10/22 12:59:34;;;;;;;18.02;16.65;;;;;;;;;;10153638;28;20042;-70
2022/10/22 13:04:32;;;;;;;16.02;14.63;;;;;;;;;;10143139;28;20054;-69
2022/10/22 13:09:41;;;;;;;16.35;14.82;;;;;;;;;;10110702;28;20051;-70
2022/10/22 13:14:37;;;;;;;14.88;13.77;;;;;;;;;;10145123;28;20046;-70
2022/10/22 13:19:41;;;;;;;17.35;15.68;;;;;;;;;;10121911;28;20074;-70
2022/10/22 13:24:47;;;;;;;14.38;13.20;;;;;;;;;;10140752;28;20069;-70
2022/10/22 13:29:43;;;;;;;13.15;11.80;;;;;;;;;;10145011;28;20441;-70
2022/10/22 13:34:40;;;;;;;12.63;11.52;;;;;;;;;;10134977;28;20499;-70
2022/10/22 13:39:36;;;;;;;13.30;12.25;;;;;;;;;;10141702;28;20417;-70
2022/10/22 13:44:32;;;;;;;13.05;11.70;;;;;;;;;;10107452;28;20038;-70
2022/10/22 13:49:28;;;;;;;10.48;9.55;;;;;;;;;;10131841;28;20038;-70
2022/10/22 13:54:25;;;;;;;9.52;8.05;;;;;;;;;;10129365;28;20046;-70
2022/10/22 13:59:21;;;;;;;13.65;8.57;;;;;;;;;;10149840;28;20046;-69
2022/10/22 14:04:19;;;;;;;12.18;9.23;;;;;;;;;;10133989;28;20046;-70
2022/10/22 14:09:15;;;;;;;12.68;11.00;;;;;;;;;;10150065;28;20129;-69
2022/10/22 14:14:15;;;;;;;12.10;10.77;;;;;;;;;;10144963;28;20042;-70
2022/10/22 14:19:16;;;;;;;13.18;11.90;;;;;;;;;;10139962;28;20042;-70
2022/10/22 14:24:12;;;;;;;12.27;11.10;;;;;;;;;;10149026;28;20042;-70
2022/10/22 14:29:08;;;;;;;13.38;10.73;;;;;;;;;;10155031;28;20039;-70
2022/10/22 14:34:08;;;;;;;11.27;10.18;;;;;;;;;;10125733;28;20047;-70
2022/10/22 14:39:05;;;;;;;10.95;10.05;;;;;;;;;;10135992;28;20043;-70
2022/10/22 14:44:01;;;;;;;12.10;10.80;;;;;;;;;;10134601;28;20047;-70
2022/10/22 14:48:57;;;;;;;14.20;11.82;;;;;;;;;;10152731;28;20077;-70
2022/10/22 14:53:53;;;;;;;14.07;11.80;;;;;;;;;;10125693;28;20046;-70
2022/10/22 14:58:50;;;;;;;12.98;10.90;;;;;;;;;;10106880;28;20089;-70
2022/10/22 15:03:46;;;;;;;16.63;12.60;;;;;;;;;;10120474;28;20045;-70
2022/10/22 15:08:43;;;;;;;14.25;12.88;;;;;;;;;;10110291;28;20049;-70
2022/10/22 15:13:40;;;;;;;14.20;13.10;;;;;;;;;;10110697;28;20043;-70
2022/10/22 15:18:37;;;;;;;15.02;13.52;;;;;;;;;;10109834;28;20043;-70
2022/10/22 15:23:34;;;;;;;15.32;14.02;;;;;;;;;;10102522;28;20042;-70
2022/10/22 15:28:31;;;;;;;16.75;15.43;;;;;;;;;;10106998;28;20057;-70
2022/10/22 15:33:27;;;;;;;17.25;15.80;;;;;;;;;;10104218;28;20051;-70
2022/10/22 15:38:27;;;;;;;17.63;16.02;;;;;;;;;;10145162;28;20049;-70
2022/10/22 15:43:23;;;;;;;17.45;15.95;;;;;;;;;;10146702;28;20460;-70
2022/10/22 15:48:20;;;;;;;18.45;16.92;;;;;;;;;;10123666;28;20057;-70
2022/10/22 15:53:16;;;;;;;18.23;16.65;;;;;;;;;;10124412;28;20051;-70
2022/10/22 15:58:12;;;;;;;18.35;17.15;;;;;;;;;;10124281;28;20057;-70
2022/10/22 16:03:08;;;;;;;21.42;19.60;;;;;;;;;;10109920;28;20046;-70
2022/10/22 16:08:05;;;;;;;22.73;21.20;;;;;;;;;;10114158;28;20909;-70
2022/10/22 16:13:01;;;;;;;22.23;20.73;;;;;;;;;;10119388;28;20046;-70
2022/10/22 16:17:57;;;;;;;27.10;25.02;;;;;;;;;;10129412;28;20468;-70
2022/10/22 16:22:53;;;;;;;30.83;28.80;;;;;;;;;;10151222;28;20057;-70
2022/10/22 16:27:50;;;;;;;37.17;34.58;;;;;;;;;;10146210;28;20435;-70
2022/10/22 16:32:47;;;;;;;43.78;40.92;;;;;;;;;;10147584;28;20429;-70
2022/10/22 16:37:43;;;;;;;56.83;53.30;;;;;;;;;;10136417;28;20497;-70
2022/10/22 16:42:40;;;;;;;57.03;53.40;;;;;;;;;;10142185;28;20411;-70
2022/10/22 16:47:37;;;;;;;65.38;61.58;;;;;;;;;;10143161;28;20654;-70
2022/10/22 16:52:34;;;;;;;68.25;64.53;;;;;;;;;;10127208;28;20233;-70
2022/10/22 16:57:32;;;;;;;67.72;63.63;;;;;;;;;;10133748;28;20047;-70
2022/10/22 17:02:29;;;;;;;73.70;69.38;;;;;;;;;;10137447;28;20253;-70
2022/10/22 17:07:25;;;;;;;81.45;76.55;;;;;;;;;;10126697;28;20042;-70
2022/10/22 17:12:21;;;;;;;86.10;80.90;;;;;;;;;;10127530;28;20389;-70
2022/10/22 17:17:17;;;;;;;87.32;82.32;;;;;;;;;;10127259;28;20492;-70
2022/10/22 17:22:13;;;;;;;89.40;84.50;;;;;;;;;;10119475;28;20046;-70
2022/10/22 17:27:13;;;;;;;92.82;87.78;;;;;;;;;;10130022;28;20504;-70
2022/10/22 17:32:09;;;;;;;108.68;102.50;;;;;;;;;;10116761;28;20042;-70
2022/10/22 17:37:06;;;;;;;116.00;109.75;;;;;;;;;;10125744;28;20051;-70
2022/10/22 17:42:02;;;;;;;122.43;115.75;;;;;;;;;;10125128;28;20053;-70
2022/10/22 17:46:59;;;;;;;116.93;110.35;;;;;;;;;;10149877;28;20057;-70
2022/10/22 17:51:56;;;;;;;122.50;115.80;;;;;;;;;;10146296;28;20508;-70
2022/10/22 17:56:52;;;;;;;131.70;124.70;;;;;;;;;;10143425;28;20591;-70
2022/10/22 18:01:48;;;;;;;132.80;125.68;;;;;;;;;;10161606;28;20054;-70
2022/10/22 18:06:46;;;;;;;127.03;120.07;;;;;;;;;;10150463;28;20436;-70
2022/10/22 18:11:43;;;;;;;140.82;132.13;;;;;;;;;;10150575;28;20108;-69
2022/10/22 18:16:39;;;;;;;141.10;132.85;;;;;;;;;;10141469;28;20046;-70
2022/10/22 18:21:35;;;;;;;143.90;135.50;;;;;;;;;;10118163;28;20050;-69
2022/10/22 18:26:32;;;;;;;147.02;138.65;;;;;;;;;;10149456;28;20053;-69
2022/10/22 18:31:29;;;;;;;147.95;139.05;;;;;;;;;;10136329;28;20049;-70
2022/10/22 18:36:26;;;;;;;140.63;132.63;;;;;;;;;;10144106;28;20527;-70
2022/10/22 18:41:23;;;;;;;143.63;135.32;;;;;;;;;;10145661;28;20047;-70
2022/10/22 18:46:19;;;;;;;141.48;133.77;;;;;;;;;;10152362;28;20065;-70
2022/10/22 18:51:16;;;;;;;136.77;128.60;;;;;;;;;;10151668;28;20522;-70
2022/10/22 18:56:12;;;;;;;147.02;138.55;;;;;;;;;;10143643;28;20042;-70
2022/10/22 19:01:12;;;;;;;148.30;139.95;;;;;;;;;;10115609;28;20061;-70
2022/10/22 19:06:09;;;;;;;147.90;139.63;;;;;;;;;;10109034;28;20047;-70
2022/10/22 19:11:10;;;;;;;143.85;135.60;;;;;;;;;;10115910;28;20053;-70
2022/10/22 19:16:08;;;;;;;133.40;125.93;;;;;;;;;;10112211;28;20066;-70
2022/10/22 19:21:04;;;;;;;142.75;134.68;;;;;;;;;;10107792;28;20045;-70
2022/10/22 19:26:04;;;;;;;136.05;128.43;;;;;;;;;;10110852;28;20054;-70
2022/10/22 19:31:00;;;;;;;128.85;121.80;;;;;;;;;;10142936;28;20067;-70
2022/10/22 19:35:56;;;;;;;135.73;128.23;;;;;;;;;;10109976;28;20516;-70
2022/10/22 19:40:52;;;;;;;133.88;126.30;;;;;;;;;;10112575;28;20042;-70
2022/10/22 19:45:49;;;;;;;139.90;131.88;;;;;;;;;;10115760;28;20432;-70
2022/10/22 19:50:45;;;;;;;143.95;135.60;;;;;;;;;;10110012;28;20043;-70
2022/10/22 19:55:43;;;;;;;145.48;137.10;;;;;;;;;;10120259;28;20051;-70
2022/10/22 20:00:39;;;;;;;151.18;142.40;;;;;;;;;;10114234;28;20059;-70
2022/10/22 20:05:37;;;;;;;139.48;131.27;;;;;;;;;;10100801;28;20046;-70
2022/10/22 20:10:33;;;;;;;144.30;136.07;;;;;;;;;;10100736;28;20061;-70
2022/10/22 20:15:33;;;;;;;143.18;134.55;;;;;;;;;;10115880;28;20053;-70
2022/10/22 20:20:29;;;;;;;142.27;133.75;;;;;;;;;;10154587;28;20405;-70
2022/10/22 20:25:25;;;;;;;141.65;133.05;;;;;;;;;;10146771;28;20064;-70
2022/10/22 20:30:21;;;;;;;146.35;137.45;;;;;;;;;;10150353;28;20061;-70
2022/10/22 20:35:18;;;;;;;147.25;138.45;;;;;;;;;;10114332;28;20061;-70
2022/10/22 20:40:14;;;;;;;148.05;139.32;;;;;;;;;;10113796;28;20035;-70
2022/10/22 20:45:10;;;;;;;148.60;139.65;;;;;;;;;;10123425;28;20039;-70
2022/10/22 20:50:08;;;;;;;147.98;139.45;;;;;;;;;;10150795;28;20127;-70
2022/10/22 20:55:04;;;;;;;151.18;142.13;;;;;;;;;;10146815;28;20043;-71
2022/10/22 21:00:00;;;;;;;150.65;141.73;;;;;;;;;;10151499;28;20121;-70
2022/10/22 21:04:57;;;;;;;146.82;137.77;;;;;;;;;;10156216;28;20034;-70
2022/10/22 21:09:53;;;;;;;144.35;135.70;;;;;;;;;;10148349;28;20049;-70
2022/10/22 21:14:49;;;;;;;148.15;139.10;;;;;;;;;;10164298;28;20073;-70
2022/10/22 21:19:45;;;;;;;144.45;135.40;;;;;;;;;;10155362;28;20428;-70
2022/10/22 21:24:42;;;;;;;140.63;131.15;;;;;;;;;;10157965;28;20046;-70
2022/10/22 21:29:38;;;;;;;138.77;129.88;;;;;;;;;;10143590;28;20038;-70
2022/10/22 21:34:34;;;;;;;142.65;133.52;;;;;;;;;;10148920;28;20050;-70
2022/10/22 21:39:34;;;;;;;143.75;134.48;;;;;;;;;;10148967;28;20444;-70
2022/10/22 21:44:37;;;;;;;145.02;135.38;;;;;;;;;;10144011;28;20077;-69
2022/10/22 21:49:33;;;;;;;147.18;137.43;;;;;;;;;;10147359;28;20050;-70
2022/10/22 21:54:29;;;;;;;143.43;134.32;;;;;;;;;;10152938;28;20483;-70
2022/10/22 21:59:30;;;;;;;146.73;137.32;;;;;;;;;;10105246;28;20049;-70
2022/10/22 22:04:27;;;;;;;149.02;139.98;;;;;;;;;;10102686;28;20385;-70
2022/10/22 22:09:23;;;;;;;144.00;134.65;;;;;;;;;;10095987;28;20050;-70
2022/10/22 22:14:19;;;;;;;150.10;140.10;;;;;;;;;;10103055;28;20051;-70
2022/10/22 22:19:15;;;;;;;146.77;137.45;;;;;;;;;;10152238;28;20038;-70
2022/10/22 22:24:12;;;;;;;147.27;137.95;;;;;;;;;;10116862;28;20650;-70
2022/10/22 22:29:09;;;;;;;145.85;136.10;;;;;;;;;;10108572;28;20122;-70
2022/10/22 22:34:15;;;;;;;145.50;136.13;;;;;;;;;;10150899;28;20049;-69
2022/10/22 22:39:12;;;;;;;148.25;138.80;;;;;;;;;;10121313;28;20440;-69
2022/10/22 22:44:09;;;;;;;149.48;140.00;;;;;;;;;;10145441;28;20053;-69
2022/10/22 22:49:05;;;;;;;148.88;139.77;;;;;;;;;;10132562;28;20053;-70
2022/10/22 22:54:01;;;;;;;149.50;140.52;;;;;;;;;;10111906;28;20047;-69
2022/10/22 22:58:58;;;;;;;152.55;142.93;;;;;;;;;;10113222;28;20043;-70
2022/10/22 23:03:55;;;;;;;157.63;148.18;;;;;;;;;;10110440;28;20035;-70
2022/10/22 23:08:52;;;;;;;157.02;147.25;;;;;;;;;;10140778;28;20042;-70
2022/10/22 23:13:50;;;;;;;155.88;146.50;;;;;;;;;;10130007;28;20196;-69
2022/10/22 23:18:47;;;;;;;153.00;143.30;;;;;;;;;;10149578;28;20042;-69
2022/10/22 23:23:45;;;;;;;154.98;145.30;;;;;;;;;;10137283;28;20366;-69
2022/10/22 23:28:41;;;;;;;152.25;142.32;;;;;;;;;;10145826;28;20043;-70
2022/10/22 23:33:37;;;;;;;153.98;143.90;;;;;;;;;;10152701;28;20037;-69
2022/10/22 23:38:35;;;;;;;153.60;144.45;;;;;;;;;;10158145;28;20046;-70
2022/10/22 23:43:34;;;;;;;153.98;144.43;;;;;;;;;;10127992;28;20050;-69
2022/10/22 23:48:31;;;;;;;156.70;147.20;;;;;;;;;;10116813;28;20438;-73
2022/10/22 23:53:28;;;;;;;151.50;142.15;;;;;;;;;;10127252;28;20046;-73
2022/10/22 23:58:24;;;;;;;151.48;142.15;;;;;;;;;;10110028;28;20045;-73
